Time,TemperatureF,DewpointF,PressureIn,WindDirection,WindDirectionDegrees,WindSpeedMPH,WindSpeedGustMPH,Humidity,HourlyPrecipIn,Conditions,Clouds,dailyrainin,SoftwareType,DateUTC
2013-01-15 00:02:00,24.0,19.0,-100.00,West,275,10.0,22.0,81,0.00,,,-99.99,,2013-01-15 09:02:00,
2013-01-15 00:11:00,24.0,19.0,-100.00,West,275,10.0,22.0,81,0.00,,,-99.99,,2013-01-15 09:11:00,
2013-01-15 00:22:00,23.0,19.0,-100.00,West,280,6.0,16.0,84,0.00,,,-99.99,,2013-01-15 09:22:00,
2013-01-15 00:33:00,23.0,19.0,-100.00,West,280,6.0,16.0,84,0.00,,,-99.99,,2013-01-15 09:33:00,
2013-01-15 00:42:00,23.0,19.0,-100.00,West,280,6.0,16.0,84,0.00,,,-99.99,,2013-01-15 09:42:00,
2013-01-15 00:52:00,22.0,18.0,-100.00,WNW,295,9.0,14.0,86,0.00,,,-99.99,,2013-01-15 09:52:00,
2013-01-15 01:02:00,22.0,18.0,-100.00,WNW,295,9.0,14.0,86,0.00,,,-99.99,,2013-01-15 10:02:00,
2013-01-15 01:11:00,22.0,18.0,-100.00,WNW,295,9.0,14.0,86,0.00,,,-99.99,,2013-01-15 10:11:00,
2013-01-15 01:22:00,21.0,17.0,-100.00,West,275,8.0,15.0,84,0.00,,,-99.99,,2013-01-15 10:22:00,
2013-01-15 01:32:00,21.0,17.0,-100.00,West,275,8.0,15.0,84,0.00,,,-99.99,,2013-01-15 10:32:00,
2013-01-15 01:42:00,21.0,17.0,-100.00,West,275,8.0,15.0,84,0.00,,,-99.99,,2013-01-15 10:42:00,
2013-01-15 01:52:00,19.0,13.0,-100.00,WNW,285,11.0,20.0,79,0.00,,,-99.99,,2013-01-15 10:52:00,
2013-01-15 02:02:00,19.0,13.0,-100.00,WNW,285,11.0,20.0,79,0.00,,,-99.99,,2013-01-15 11:02:00,
2013-01-15 02:12:00,19.0,13.0,-100.00,WNW,285,11.0,20.0,79,0.00,,,-99.99,,2013-01-15 11:12:00,
2013-01-15 02:22:00,17.0,10.0,-100.00,WNW,295,12.0,22.0,75,0.00,,,-99.99,,2013-01-15 11:22:00,
2013-01-15 02:32:00,17.0,10.0,-100.00,WNW,295,12.0,22.0,75,0.00,,,-99.99,,2013-01-15 11:32:00,
2013-01-15 02:42:00,17.0,10.0,-100.00,WNW,295,12.0,22.0,75,0.00,,,-99.99,,2013-01-15 11:42:00,
2013-01-15 02:52:00,16.0,10.0,-100.00,West,270,10.0,19.0,76,0.00,,,-99.99,,2013-01-15 11:52:00,
2013-01-15 03:02:00,16.0,10.0,-100.00,West,270,10.0,19.0,76,0.00,,,-99.99,,2013-01-15 12:02:00,
2013-01-15 03:12:00,16.0,10.0,-100.00,West,270,10.0,19.0,76,0.00,,,-99.99,,2013-01-15 12:12:00,
2013-01-15 03:22:00,14.0,8.0,-100.00,West,280,11.0,22.0,76,0.00,,,-99.99,,2013-01-15 12:22:00,
2013-01-15 03:32:00,14.0,8.0,-100.00,West,280,11.0,22.0,76,0.00,,,-99.99,,2013-01-15 12:32:00,
2013-01-15 03:42:00,14.0,8.0,-100.00,West,280,11.0,22.0,76,0.00,,,-99.99,,2013-01-15 12:42:00,
2013-01-15 03:53:00,12.0,7.0,-100.00,NW,305,10.0,18.0,78,0.00,,,-99.99,,2013-01-15 12:53:00,
2013-01-15 04:03:00,12.0,7.0,-100.00,NW,305,10.0,18.0,78,0.00,,,-99.99,,2013-01-15 13:03:00,
2013-01-15 04:12:00,12.0,7.0,-100.00,NW,305,10.0,18.0,78,0.00,,,-99.99,,2013-01-15 13:12:00,
2013-01-15 04:23:00,11.0,6.0,-100.00,WNW,300,8.0,14.0,78,0.00,,,-99.99,,2013-01-15 13:23:00,
2013-01-15 04:33:00,11.0,6.0,-100.00,WNW,300,8.0,14.0,78,0.00,,,-99.99,,2013-01-15 13:33:00,
2013-01-15 04:42:00,11.0,6.0,-100.00,WNW,300,8.0,14.0,78,0.00,,,-99.99,,2013-01-15 13:42:00,
2013-01-15 04:53:00,11.0,6.0,-100.00,NW,315,6.0,16.0,79,0.00,,,-99.99,,2013-01-15 13:53:00,
2013-01-15 05:02:00,11.0,6.0,-100.00,NW,315,6.0,16.0,79,0.00,,,-99.99,,2013-01-15 14:02:00,
2013-01-15 05:12:00,11.0,6.0,-100.00,NW,315,6.0,16.0,79,0.00,,,-99.99,,2013-01-15 14:12:00,
2013-01-15 05:22:00,11.0,6.0,-100.00,WNW,285,7.0,14.0,79,0.00,,,-99.99,,2013-01-15 14:22:00,
2013-01-15 05:33:00,11.0,6.0,-100.00,WNW,285,7.0,14.0,79,0.00,,,-99.99,,2013-01-15 14:33:00,
2013-01-15 05:43:00,11.0,6.0,-100.00,WNW,285,7.0,14.0,79,0.00,,,-99.99,,2013-01-15 14:43:00,
2013-01-15 05:53:00,11.0,6.0,-100.00,WNW,285,7.0,13.0,79,0.00,,,-99.99,,2013-01-15 14:53:00,
2013-01-15 06:03:00,11.0,6.0,-100.00,WNW,285,7.0,13.0,79,0.00,,,-99.99,,2013-01-15 15:03:00,
2013-01-15 06:12:00,11.0,6.0,-100.00,WNW,285,7.0,13.0,79,0.00,,,-99.99,,2013-01-15 15:12:00,
2013-01-15 06:23:00,10.0,6.0,-100.00,West,275,8.0,14.0,82,0.00,,,-99.99,,2013-01-15 15:23:00,
2013-01-15 06:33:00,10.0,6.0,-100.00,West,275,8.0,14.0,82,0.00,,,-99.99,,2013-01-15 15:33:00,
2013-01-15 06:43:00,10.0,6.0,-100.00,West,275,8.0,14.0,82,0.00,,,-99.99,,2013-01-15 15:43:00,
2013-01-15 06:52:00,10.0,6.0,-100.00,WSW,255,7.0,16.0,81,0.00,,,-99.99,,2013-01-15 15:52:00,
2013-01-15 07:02:00,10.0,6.0,-100.00,WSW,255,7.0,16.0,81,0.00,,,-99.99,,2013-01-15 16:02:00,
2013-01-15 07:12:00,10.0,6.0,-100.00,WSW,255,7.0,16.0,81,0.00,,,-99.99,,2013-01-15 16:12:00,
2013-01-15 07:22:00,10.0,5.0,-100.00,West,265,9.0,17.0,80,0.00,,,-99.99,,2013-01-15 16:22:00,
2013-01-15 07:33:00,10.0,5.0,-100.00,West,265,9.0,17.0,80,0.00,,,-99.99,,2013-01-15 16:33:00,
2013-01-15 07:42:00,10.0,5.0,-100.00,West,265,9.0,17.0,80,0.00,,,-99.99,,2013-01-15 16:42:00,
2013-01-15 07:53:00,10.0,5.0,-100.00,WSW,255,6.0,13.0,80,0.00,,,-99.99,,2013-01-15 16:53:00,
2013-01-15 08:03:00,10.0,5.0,-100.00,WSW,255,6.0,13.0,80,0.00,,,-99.99,,2013-01-15 17:03:00,
2013-01-15 08:12:00,10.0,5.0,-100.00,WSW,255,6.0,13.0,80,0.00,,,-99.99,,2013-01-15 17:12:00,
2013-01-15 08:22:00,11.0,6.0,-100.00,West,280,7.0,16.0,77,0.00,,,-99.99,,2013-01-15 17:22:00,
2013-01-15 08:33:00,11.0,6.0,-100.00,West,280,7.0,16.0,77,0.00,,,-99.99,,2013-01-15 17:33:00,
2013-01-15 08:42:00,11.0,6.0,-100.00,West,280,7.0,16.0,77,0.00,,,-99.99,,2013-01-15 17:42:00,
2013-01-15 08:53:00,11.0,6.0,-100.00,WSW,255,4.0,11.0,79,0.00,,,-99.99,,2013-01-15 17:53:00,
2013-01-15 09:03:00,11.0,6.0,-100.00,WSW,255,4.0,11.0,79,0.00,,,-99.99,,2013-01-15 18:03:00,
2013-01-15 09:12:00,11.0,6.0,-100.00,WSW,255,4.0,11.0,79,0.00,,,-99.99,,2013-01-15 18:12:00,
2013-01-15 09:22:00,12.0,7.0,-100.00,SW,225,5.0,10.0,78,0.00,,,-99.99,,2013-01-15 18:22:00,
2013-01-15 09:33:00,12.0,7.0,-100.00,SW,225,5.0,10.0,78,0.00,,,-99.99,,2013-01-15 18:33:00,
2013-01-15 09:42:00,12.0,7.0,-100.00,SW,225,5.0,10.0,78,0.00,,,-99.99,,2013-01-15 18:42:00,
2013-01-15 09:53:00,12.0,7.0,-100.00,WSW,240,4.0,16.0,81,0.00,,,-99.99,,2013-01-15 18:53:00,
2013-01-15 10:03:00,12.0,7.0,-100.00,WSW,240,4.0,16.0,81,0.00,,,-99.99,,2013-01-15 19:03:00,
2013-01-15 10:12:00,12.0,7.0,-100.00,WSW,240,4.0,16.0,81,0.00,,,-99.99,,2013-01-15 19:12:00,
2013-01-15 10:22:00,12.0,7.0,-100.00,SW,225,5.0,12.0,82,0.00,,,-99.99,,2013-01-15 19:22:00,
2013-01-15 10:33:00,12.0,7.0,-100.00,SW,225,5.0,12.0,82,0.00,,,-99.99,,2013-01-15 19:33:00,
2013-01-15 10:42:00,12.0,7.0,-100.00,SW,225,5.0,12.0,82,0.00,,,-99.99,,2013-01-15 19:42:00,
2013-01-15 10:52:00,12.0,8.0,-100.00,WSW,245,7.0,15.0,82,0.00,,,-99.99,,2013-01-15 19:52:00,
2013-01-15 11:03:00,12.0,8.0,-100.00,WSW,245,7.0,15.0,82,0.00,,,-99.99,,2013-01-15 20:03:00,
2013-01-15 11:12:00,12.0,8.0,-100.00,WSW,245,7.0,15.0,82,0.00,,,-99.99,,2013-01-15 20:12:00,
2013-01-15 11:22:00,13.0,8.0,-100.00,West,275,9.0,15.0,80,0.00,,,-99.99,,2013-01-15 20:22:00,
2013-01-15 11:33:00,13.0,8.0,-100.00,West,275,9.0,15.0,80,0.00,,,-99.99,,2013-01-15 20:33:00,
2013-01-15 11:40:00,13.0,8.0,-100.00,West,270,9.0,16.0,77,0.00,,,-99.99,,2013-01-15 20:40:00,
2013-01-15 11:43:00,13.0,8.0,-100.00,West,275,9.0,15.0,80,0.00,,,-99.99,,2013-01-15 20:43:00,
2013-01-15 11:52:00,13.0,8.0,-100.00,West,270,8.0,14.0,77,0.00,,,-99.99,,2013-01-15 20:52:00,
2013-01-15 12:03:00,13.0,8.0,-100.00,West,270,8.0,14.0,77,0.00,,,-99.99,,2013-01-15 21:03:00,
2013-01-15 12:12:00,13.0,8.0,-100.00,West,270,8.0,14.0,77,0.00,,,-99.99,,2013-01-15 21:12:00,
2013-01-15 12:22:00,13.0,8.0,-100.00,West,270,9.0,16.0,77,0.00,,,-99.99,,2013-01-15 21:22:00,
2013-01-15 12:33:00,13.0,8.0,-100.00,West,270,9.0,16.0,77,0.00,,,-99.99,,2013-01-15 21:33:00,
2013-01-15 12:53:00,13.0,8.0,-100.00,West,275,12.0,20.0,77,0.00,,,-99.99,,2013-01-15 21:53:00,
2013-01-15 13:02:00,13.0,8.0,-100.00,West,275,12.0,20.0,77,0.00,,,-99.99,,2013-01-15 22:02:00,
2013-01-15 13:12:00,13.0,8.0,-100.00,West,275,12.0,20.0,77,0.00,,,-99.99,,2013-01-15 22:12:00,
2013-01-15 13:22:00,13.0,6.0,-100.00,WNW,285,11.0,19.0,73,0.00,,,-99.99,,2013-01-15 22:22:00,
2013-01-15 13:33:00,13.0,6.0,-100.00,WNW,285,11.0,19.0,73,0.00,,,-99.99,,2013-01-15 22:33:00,
2013-01-15 13:43:00,13.0,6.0,-100.00,WNW,285,11.0,19.0,73,0.00,,,-99.99,,2013-01-15 22:43:00,
2013-01-15 13:50:00,13.0,5.0,-100.00,West,275,6.0,12.0,70,0.00,,,-99.99,,2013-01-15 22:50:00,
2013-01-15 13:52:00,13.0,5.0,-100.00,West,275,10.0,14.0,68,0.00,,,-99.99,,2013-01-15 22:52:00,
2013-01-15 14:02:00,13.0,5.0,-100.00,West,275,10.0,14.0,68,0.00,,,-99.99,,2013-01-15 23:02:00,
2013-01-15 14:12:00,13.0,5.0,-100.00,West,275,10.0,14.0,68,0.00,,,-99.99,,2013-01-15 23:12:00,
2013-01-15 14:22:00,13.0,5.0,-100.00,West,275,6.0,12.0,70,0.00,,,-99.99,,2013-01-15 23:22:00,
2013-01-15 14:32:00,13.0,5.0,-100.00,West,275,6.0,12.0,70,0.00,,,-99.99,,2013-01-15 23:32:00,
2013-01-15 14:42:00,13.0,5.0,-100.00,West,275,6.0,12.0,70,0.00,,,-99.99,,2013-01-15 23:42:00,
2013-01-15 15:52:00,13.0,5.0,-100.00,North,355,4.0,7.0,71,0.00,,,-99.99,,2013-01-16 00:52:00,
2013-01-15 16:02:00,13.0,5.0,-100.00,North,355,4.0,7.0,71,0.00,,,-99.99,,2013-01-16 01:02:00,
2013-01-15 16:12:00,13.0,5.0,-100.00,North,355,4.0,7.0,71,0.00,,,-99.99,,2013-01-16 01:12:00,
2013-01-15 16:22:00,13.0,4.0,-100.00,NW,320,4.0,6.0,68,0.00,,,-99.99,,2013-01-16 01:22:00,
2013-01-15 16:33:00,13.0,4.0,-100.00,NW,320,4.0,6.0,68,0.00,,,-99.99,,2013-01-16 01:33:00,
2013-01-15 16:42:00,13.0,4.0,-100.00,NW,320,4.0,6.0,68,0.00,,,-99.99,,2013-01-16 01:42:00,
2013-01-15 16:52:00,14.0,4.0,-100.00,West,275,4.0,6.0,61,0.00,,,-99.99,,2013-01-16 01:52:00,
2013-01-15 17:02:00,14.0,4.0,-100.00,West,275,4.0,6.0,61,0.00,,,-99.99,,2013-01-16 02:02:00,
2013-01-15 17:12:00,14.0,4.0,-100.00,West,275,4.0,6.0,61,0.00,,,-99.99,,2013-01-16 02:12:00,
2013-01-15 17:22:00,13.0,5.0,-100.00,SE,140,3.0,4.0,67,0.00,,,-99.99,,2013-01-16 02:22:00,
2013-01-15 17:32:00,13.0,5.0,-100.00,SE,140,3.0,4.0,67,0.00,,,-99.99,,2013-01-16 02:32:00,
2013-01-15 17:42:00,13.0,5.0,-100.00,SE,140,3.0,4.0,67,0.00,,,-99.99,,2013-01-16 02:42:00,
2013-01-15 17:52:00,11.0,5.0,-100.00,SE,145,6.0,8.0,75,0.00,,,-99.99,,2013-01-16 02:52:00,
2013-01-15 18:02:00,11.0,5.0,-100.00,SE,145,6.0,8.0,75,0.00,,,-99.99,,2013-01-16 03:02:00,
2013-01-15 18:11:00,11.0,5.0,-100.00,SE,145,6.0,8.0,75,0.00,,,-99.99,,2013-01-16 03:11:00,
2013-01-15 18:22:00,12.0,6.0,-100.00,SE,140,4.0,7.0,76,0.00,,,-99.99,,2013-01-16 03:22:00,
2013-01-15 18:32:00,12.0,6.0,-100.00,SE,140,4.0,7.0,76,0.00,,,-99.99,,2013-01-16 03:32:00,
2013-01-15 18:42:00,12.0,6.0,-100.00,SE,140,4.0,7.0,76,0.00,,,-99.99,,2013-01-16 03:42:00,
2013-01-15 18:52:00,12.0,6.0,-100.00,SE,135,4.0,9.0,76,0.00,,,-99.99,,2013-01-16 03:52:00,
2013-01-15 19:02:00,12.0,6.0,-100.00,SE,135,4.0,9.0,76,0.00,,,-99.99,,2013-01-16 04:02:00,
2013-01-15 19:12:00,12.0,6.0,-100.00,SE,135,4.0,9.0,76,0.00,,,-99.99,,2013-01-16 04:12:00,
2013-01-15 19:22:00,12.0,6.0,-100.00,SE,130,6.0,9.0,77,0.00,,,-99.99,,2013-01-16 04:22:00,
2013-01-15 19:32:00,12.0,6.0,-100.00,SE,130,6.0,9.0,77,0.00,,,-99.99,,2013-01-16 04:32:00,
2013-01-15 19:42:00,12.0,6.0,-100.00,SE,130,6.0,9.0,77,0.00,,,-99.99,,2013-01-16 04:42:00,
2013-01-15 19:52:00,12.0,6.0,-100.00,SE,145,4.0,7.0,78,0.00,,,-99.99,,2013-01-16 04:52:00,
2013-01-15 20:03:00,12.0,6.0,-100.00,SE,145,4.0,7.0,78,0.00,,,-99.99,,2013-01-16 05:03:00,
2013-01-15 20:12:00,12.0,6.0,-100.00,SE,145,4.0,7.0,78,0.00,,,-99.99,,2013-01-16 05:12:00,
2013-01-15 20:22:00,12.0,6.0,-100.00,SE,125,4.0,7.0,75,0.00,,,-99.99,,2013-01-16 05:22:00,
2013-01-15 20:32:00,12.0,6.0,-100.00,SE,125,4.0,7.0,75,0.00,,,-99.99,,2013-01-16 05:32:00,
2013-01-15 20:42:00,12.0,6.0,-100.00,SE,125,4.0,7.0,75,0.00,,,-99.99,,2013-01-16 05:42:00,
2013-01-15 20:52:00,12.0,6.0,-100.00,SSE,160,4.0,7.0,74,0.00,,,0.00,,2013-01-16 05:52:00,
2013-01-15 21:02:00,12.0,6.0,-100.00,SSE,160,4.0,7.0,74,0.00,,,0.00,,2013-01-16 06:02:00,
2013-01-15 21:12:00,12.0,6.0,-100.00,SSE,160,4.0,7.0,74,0.00,,,0.00,,2013-01-16 06:12:00,
2013-01-15 21:22:00,12.0,6.0,-100.00,SE,140,4.0,7.0,73,0.00,,,0.00,,2013-01-16 06:22:00,
2013-01-15 21:32:00,12.0,6.0,-100.00,SE,140,4.0,7.0,73,0.00,,,0.00,,2013-01-16 06:32:00,
2013-01-15 21:42:00,12.0,6.0,-100.00,SE,140,4.0,7.0,73,0.00,,,0.00,,2013-01-16 06:42:00,
2013-01-15 21:52:00,12.0,6.0,-100.00,SE,135,3.0,5.0,76,0.00,,,0.00,,2013-01-16 06:52:00,
2013-01-15 22:02:00,12.0,6.0,-100.00,SE,135,3.0,5.0,76,0.00,,,0.00,,2013-01-16 07:02:00,
2013-01-15 22:11:00,12.0,6.0,-100.00,SE,135,3.0,5.0,76,0.00,,,0.00,,2013-01-16 07:11:00,
2013-01-15 22:22:00,12.0,6.0,-100.00,ESE,120,3.0,6.0,76,0.00,,,0.00,,2013-01-16 07:22:00,
2013-01-15 22:32:00,12.0,6.0,-100.00,ESE,120,3.0,6.0,76,0.00,,,0.00,,2013-01-16 07:32:00,
2013-01-15 22:42:00,12.0,6.0,-100.00,ESE,120,3.0,6.0,76,0.00,,,0.00,,2013-01-16 07:42:00,
2013-01-15 22:52:00,12.0,6.0,-100.00,SE,140,2.0,4.0,75,0.00,,,0.00,,2013-01-16 07:52:00,
2013-01-15 23:02:00,12.0,6.0,-100.00,SE,140,2.0,4.0,75,0.00,,,0.00,,2013-01-16 08:02:00,
2013-01-15 23:12:00,12.0,6.0,-100.00,SE,140,2.0,4.0,75,0.00,,,0.00,,2013-01-16 08:12:00,
2013-01-15 23:22:00,13.0,6.0,-100.00,South,190,2.0,4.0,74,0.00,,,0.00,,2013-01-16 08:22:00,
2013-01-15 23:42:00,13.0,6.0,-100.00,South,190,2.0,4.0,74,0.00,,,0.00,,2013-01-16 08:42:00,
2013-01-15 23:52:00,13.0,6.0,-100.00,South,185,3.0,5.0,73,0.00,,,0.00,,2013-01-16 08:52:00,